Terminal Aerodrome Forecast
Issued by NWS Wilmington, OH

Current Version | Previous Version | Text Only | Print | Product List | Glossary Off
Versions: 1 2 3 4 5 6 7 8 9 10 11 12 13 14 15 16 17 18 19 20 21 22 23 24

000
FTUS41 KILN 211505 AAA
TAFCVG
TAF AMD
KCVG 211505Z 2115/2218 19006KT P6SM OVC200
     FM212200 21007KT P6SM VCSH SCT035 OVC090
     FM220200 19004KT 5SM -SHRA BR OVC025
     FM220600 19004KT 5SM BR VCSH OVC015
     FM221400 21004KT P6SM BKN018=

USA.gov is the U.S. government's official web portal to all federal, state and local government web resources and services.